Time;durP1;ratioP1;P1;durP2;ratioP2;P2;SDS_P1;SDS_P2;PMS_P1;PMS_P2;Temp;Humidity;BMP_temperature;BMP_pressure;BME280_temperature;BME280_humidity;BME280_pressure;Samples;Min_cycle;Max_cycle;Signal;HPM_P1;HPM_P2
2021/08/17 00:00:24;;;;;;;18.10;11.77;;;;;;;;;;2101134;28;20417;-45
2021/08/17 00:01:26;;;;;;;17.42;10.88;;;;;;;;;;2105676;28;20489;-48
2021/08/17 00:02:27;;;;;;;21.92;11.73;;;;;;;;;;2105708;28;20048;-44
2021/08/17 00:03:28;;;;;;;20.17;11.73;;;;;;;;;;2102325;28;20093;-45
2021/08/17 00:04:33;;;;;;;14.98;10.32;;;;;;;;;;2105805;28;20511;-45
2021/08/17 00:05:35;;;;;;;19.47;11.87;;;;;;;;;;2105554;28;20126;-46
2021/08/17 00:06:36;;;;;;;16.38;11.85;;;;;;;;;;2102001;28;20059;-45
2021/08/17 00:07:38;;;;;;;16.57;11.00;;;;;;;;;;2097545;28;20053;-45
2021/08/17 00:08:38;;;;;;;;;;;;;;;;;;2097553;28;20054;-45
2021/08/17 00:09:41;;;;;;;16.08;10.90;;;;;;;;;;2101012;28;19924;-46
2021/08/17 00:10:42;;;;;;;18.15;11.57;;;;;;;;;;2097441;28;20132;-47
2021/08/17 00:11:43;;;;;;;17.57;12.20;;;;;;;;;;2098229;28;20127;-45
2021/08/17 00:12:44;;;;;;;17.45;11.55;;;;;;;;;;2103430;28;20051;-47
2021/08/17 00:13:47;;;;;;;16.57;11.53;;;;;;;;;;2105799;28;20512;-46
2021/08/17 00:14:48;;;;;;;16.10;10.43;;;;;;;;;;2102219;28;20087;-46
2021/08/17 00:15:49;;;;;;;18.88;11.40;;;;;;;;;;2104272;28;20501;-44
2021/08/17 00:16:50;;;;;;;15.63;11.73;;;;;;;;;;2105771;28;20101;-45
2021/08/17 00:17:51;;;;;;;18.73;11.50;;;;;;;;;;2102428;28;20086;-47
2021/08/17 00:18:53;;;;;;;18.67;10.77;;;;;;;;;;2099308;28;20312;-44
2021/08/17 00:19:54;;;;;;;17.77;11.37;;;;;;;;;;2097417;28;20068;-44
2021/08/17 00:20:55;;;;;;;21.80;11.40;;;;;;;;;;2099873;28;20372;-44
2021/08/17 00:21:56;;;;;;;17.90;11.03;;;;;;;;;;2097604;28;20056;-45
2021/08/17 00:22:57;;;;;;;21.38;11.70;;;;;;;;;;2097285;28;20387;-48
2021/08/17 00:23:58;;;;;;;17.45;11.90;;;;;;;;;;2099901;28;20105;-46
2021/08/17 00:24:59;;;;;;;17.17;11.07;;;;;;;;;;2105675;28;20433;-45
2021/08/17 00:26:00;;;;;;;15.20;11.60;;;;;;;;;;2105760;28;20062;-44
2021/08/17 00:27:01;;;;;;;15.88;11.00;;;;;;;;;;2100856;28;20127;-44
2021/08/17 00:28:03;;;;;;;14.35;10.20;;;;;;;;;;2105667;28;20044;-44
2021/08/17 00:29:04;;;;;;;18.40;11.80;;;;;;;;;;2104988;28;20102;-44
2021/08/17 00:30:06;;;;;;;18.43;11.13;;;;;;;;;;2101807;28;20485;-44
2021/08/17 00:31:06;;;;;;;;;;;;;;;;;;2106099;28;20692;-45
2021/08/17 00:32:08;;;;;;;22.65;12.10;;;;;;;;;;2104260;28;19973;-47
2021/08/17 00:33:08;;;;;;;16.98;11.75;;;;;;;;;;2100765;28;20465;-46
2021/08/17 00:34:10;;;;;;;17.23;11.90;;;;;;;;;;2097259;28;20045;-45
2021/08/17 00:35:10;;;;;;;17.35;10.80;;;;;;;;;;2098174;28;20097;-48
2021/08/17 00:36:12;;;;;;;18.13;11.63;;;;;;;;;;2103360;28;20093;-47
2021/08/17 00:37:12;;;;;;;19.58;11.63;;;;;;;;;;2105707;28;20135;-44
2021/08/17 00:38:14;;;;;;;17.33;11.70;;;;;;;;;;2102633;28;20123;-45
2021/08/17 00:39:16;;;;;;;;;;;;;;;;;;2103668;28;20044;-44
2021/08/17 00:40:17;;;;;;;18.27;10.93;;;;;;;;;;2105731;28;20037;-47
2021/08/17 00:41:18;;;;;;;15.85;10.10;;;;;;;;;;2103908;28;20131;-47
2021/08/17 00:42:19;;;;;;;17.45;12.40;;;;;;;;;;2100079;28;20457;-44
2021/08/17 00:43:20;;;;;;;15.05;10.98;;;;;;;;;;2097192;28;20105;-48
2021/08/17 00:44:22;;;;;;;16.10;12.00;;;;;;;;;;2097753;28;20452;-45
2021/08/17 00:45:26;;;;;;;19.27;12.23;;;;;;;;;;2104870;28;20052;-45
2021/08/17 00:46:27;;;;;;;21.77;10.70;;;;;;;;;;2105711;28;20067;-46
2021/08/17 00:47:28;;;;;;;15.67;11.53;;;;;;;;;;2102030;28;20063;-46
2021/08/17 00:48:29;;;;;;;20.42;11.32;;;;;;;;;;2106049;28;20716;-48
2021/08/17 00:49:30;;;;;;;15.67;11.00;;;;;;;;;;2107056;28;20048;-45
2021/08/17 00:50:32;;;;;;;15.25;11.20;;;;;;;;;;2103674;28;20637;-45
2021/08/17 00:51:33;;;;;;;14.98;11.38;;;;;;;;;;2106974;28;20145;-46
2021/08/17 00:52:34;;;;;;;17.42;11.20;;;;;;;;;;2101867;28;20051;-45
2021/08/17 00:53:36;;;;;;;18.07;12.10;;;;;;;;;;2101943;28;20405;-46
2021/08/17 00:54:37;;;;;;;18.92;11.80;;;;;;;;;;2098524;28;20817;-47
2021/08/17 00:55:39;;;;;;;17.37;11.60;;;;;;;;;;2098750;28;20049;-48
2021/08/17 00:56:40;;;;;;;15.25;10.85;;;;;;;;;;2101582;28;20075;-44
2021/08/17 00:57:41;;;;;;;16.00;11.50;;;;;;;;;;2107045;28;20177;-46
2021/08/17 00:58:42;;;;;;;17.30;11.40;;;;;;;;;;2106488;28;20564;-46
2021/08/17 00:59:43;;;;;;;17.60;11.77;;;;;;;;;;2103857;28;20048;-45
2021/08/17 01:00:46;;;;;;;15.45;11.48;;;;;;;;;;2107024;28;20044;-46
2021/08/17 01:01:47;;;;;;;17.10;11.68;;;;;;;;;;2105726;28;20072;-46
2021/08/17 01:02:48;;;;;;;21.35;12.20;;;;;;;;;;2103607;28;20093;-46
2021/08/17 01:03:50;;;;;;;16.88;11.40;;;;;;;;;;2107076;28;20055;-46
2021/08/17 01:04:51;;;;;;;20.02;12.05;;;;;;;;;;2104681;28;20052;-45
2021/08/17 01:05:52;;;;;;;16.55;11.88;;;;;;;;;;2104544;28;20390;-45
2021/08/17 01:06:53;;;;;;;17.40;11.85;;;;;;;;;;2106870;28;20572;-45
2021/08/17 01:07:54;;;;;;;17.27;10.97;;;;;;;;;;2103842;28;20051;-45
2021/08/17 01:08:56;;;;;;;16.55;12.30;;;;;;;;;;2104607;28;20544;-45
2021/08/17 01:09:57;;;;;;;17.80;11.27;;;;;;;;;;2106833;28;20489;-46
2021/08/17 01:10:58;;;;;;;18.10;11.32;;;;;;;;;;2104835;28;20066;-44
2021/08/17 01:12:00;;;;;;;20.27;11.88;;;;;;;;;;2105320;28;20386;-45
2021/08/17 01:13:01;;;;;;;17.73;12.50;;;;;;;;;;2106917;28;20135;-45
2021/08/17 01:14:02;;;;;;;17.08;11.52;;;;;;;;;;2103559;28;20072;-44
2021/08/17 01:15:04;;;;;;;19.17;12.65;;;;;;;;;;2106492;28;20579;-45
2021/08/17 01:16:05;;;;;;;;;;;;;;;;;;2107236;28;20606;-45
2021/08/17 01:17:06;;;;;;;16.75;11.18;;;;;;;;;;2102972;28;19924;-46
2021/08/17 01:18:07;;;;;;;21.30;11.97;;;;;;;;;;2105965;28;20093;-46
2021/08/17 01:19:08;;;;;;;17.13;11.95;;;;;;;;;;2106841;28;20071;-44
2021/08/17 01:20:12;;;;;;;20.50;12.02;;;;;;;;;;2102289;28;20083;-45
2021/08/17 01:21:13;;;;;;;22.20;12.60;;;;;;;;;;2106032;28;20050;-48
2021/08/17 01:22:15;;;;;;;21.50;12.88;;;;;;;;;;2106640;28;20067;-49
2021/08/17 01:23:17;;;;;;;18.83;12.98;;;;;;;;;;2102141;28;20101;-44
2021/08/17 01:24:19;;;;;;;15.07;10.98;;;;;;;;;;2098546;28;20127;-46
2021/08/17 01:25:20;;;;;;;17.67;11.70;;;;;;;;;;2098498;28;20063;-48
2021/08/17 01:26:22;;;;;;;19.13;12.30;;;;;;;;;;2101849;28;20460;-44
2021/08/17 01:27:23;;;;;;;;;;;;;;;;;;2098724;28;20534;-48
2021/08/17 01:28:24;;;;;;;18.85;12.05;;;;;;;;;;2098107;28;19920;-46
2021/08/17 01:29:25;;;;;;;20.08;13.48;;;;;;;;;;2102691;28;20486;-45
2021/08/17 01:30:26;;;;;;;19.87;12.30;;;;;;;;;;2106779;28;20051;-45
2021/08/17 01:31:27;;;;;;;16.80;12.40;;;;;;;;;;2105536;28;20054;-47
2021/08/17 01:32:28;;;;;;;20.50;12.75;;;;;;;;;;2101978;28;20067;-47
2021/08/17 01:33:29;;;;;;;17.10;11.98;;;;;;;;;;2098527;28;20055;-44
2021/08/17 01:34:31;;;;;;;18.40;12.20;;;;;;;;;;2097753;28;20189;-44
2021/08/17 01:35:31;;;;;;;20.13;13.18;;;;;;;;;;2102017;28;20505;-46
2021/08/17 01:36:33;;;;;;;21.10;11.40;;;;;;;;;;2098345;28;20055;-44
2021/08/17 01:37:33;;;;;;;19.67;13.15;;;;;;;;;;2097795;28;20292;-47
2021/08/17 01:38:44;;;;;;;19.63;12.37;;;;;;;;;;2101216;28;20048;-45
2021/08/17 01:39:56;;;;;;;19.50;12.88;;;;;;;;;;2098514;28;20466;-45
2021/08/17 01:40:58;;;;;;;20.05;13.00;;;;;;;;;;2099664;28;20036;-45
2021/08/17 01:41:59;;;;;;;18.60;12.57;;;;;;;;;;2106549;28;20052;-46
2021/08/17 01:43:00;;;;;;;;;;;;;;;;;;2107182;28;20052;-45
2021/08/17 01:44:03;;;;;;;19.27;12.02;;;;;;;;;;2101978;28;20396;-45
2021/08/17 01:45:22;;;;;;;19.77;13.13;;;;;;;;;;2098305;28;20513;-47
2021/08/17 01:46:23;;;;;;;18.13;11.93;;;;;;;;;;2099207;28;20043;-45
2021/08/17 01:47:25;;;;;;;21.05;12.35;;;;;;;;;;2104248;28;20474;-46
2021/08/17 01:48:28;;;;;;;23.63;12.95;;;;;;;;;;2106821;28;20556;-44
2021/08/17 01:49:29;;;;;;;18.75;11.95;;;;;;;;;;2103423;28;20063;-46
2021/08/17 01:50:30;;;;;;;18.67;12.77;;;;;;;;;;2105118;28;20040;-44
2021/08/17 01:51:31;;;;;;;19.60;13.63;;;;;;;;;;2106607;28;20549;-45
2021/08/17 01:52:32;;;;;;;17.83;12.43;;;;;;;;;;2102177;28;20106;-45
2021/08/17 01:53:34;;;;;;;20.00;13.18;;;;;;;;;;2100260;28;20356;-46
2021/08/17 01:54:35;;;;;;;21.42;13.00;;;;;;;;;;2098155;28;20470;-45
2021/08/17 01:55:35;;;;;;;16.17;12.18;;;;;;;;;;2099386;28;20123;-45
2021/08/17 01:56:37;;;;;;;18.10;12.80;;;;;;;;;;2100518;28;20059;-46
2021/08/17 01:57:39;;;;;;;21.77;13.95;;;;;;;;;;2098105;28;20140;-45
2021/08/17 01:58:40;;;;;;;18.38;12.90;;;;;;;;;;2099662;28;20454;-44
2021/08/17 01:59:41;;;;;;;;;;;;;;;;;;2099859;28;20128;-45
2021/08/17 02:00:43;;;;;;;17.38;11.80;;;;;;;;;;2098277;28;19920;-48
2021/08/17 02:01:44;;;;;;;22.33;13.40;;;;;;;;;;2099604;28;20485;-45
2021/08/17 02:02:46;;;;;;;20.83;13.55;;;;;;;;;;2106261;28;20461;-47
2021/08/17 02:03:47;;;;;;;18.92;12.45;;;;;;;;;;2106637;28;20131;-48
2021/08/17 02:04:48;;;;;;;19.70;13.40;;;;;;;;;;2102938;28;20627;-45
2021/08/17 02:05:49;;;;;;;20.42;13.85;;;;;;;;;;2098200;28;20127;-44
2021/08/17 02:06:50;;;;;;;24.00;14.07;;;;;;;;;;2098288;28;20055;-47
2021/08/17 02:07:53;;;;;;;19.38;14.07;;;;;;;;;;2100994;28;20209;-48
2021/08/17 02:08:55;;;;;;;20.58;14.07;;;;;;;;;;2106503;28;20048;-45
2021/08/17 02:09:56;;;;;;;19.75;13.63;;;;;;;;;;2105941;28;20044;-45
2021/08/17 02:10:57;;;;;;;22.17;13.97;;;;;;;;;;2101666;28;20051;-44
2021/08/17 02:11:59;;;;;;;17.63;13.05;;;;;;;;;;2098289;28;20397;-46
2021/08/17 02:13:00;;;;;;;;;;;;;;;;;;2099115;28;20044;-48
2021/08/17 02:14:03;;;;;;;21.92;13.30;;;;;;;;;;2103478;28;20301;-47
2021/08/17 02:15:04;;;;;;;17.90;12.73;;;;;;;;;;2106345;28;20134;-45
2021/08/17 02:16:05;;;;;;;25.85;14.57;;;;;;;;;;2103762;28;20450;-45
2021/08/17 02:17:06;;;;;;;24.55;13.82;;;;;;;;;;2101896;28;20131;-44
2021/08/17 02:18:07;;;;;;;18.90;13.50;;;;;;;;;;2098327;28;20504;-46
2021/08/17 02:19:08;;;;;;;24.23;13.43;;;;;;;;;;2097680;28;20139;-47
2021/08/17 02:20:10;;;;;;;18.05;13.07;;;;;;;;;;2101732;28;20110;-46
2021/08/17 02:21:11;;;;;;;22.33;13.68;;;;;;;;;;2098187;28;20062;-44
2021/08/17 02:22:12;;;;;;;22.80;14.43;;;;;;;;;;2099523;28;20052;-45
2021/08/17 02:23:13;;;;;;;18.93;12.17;;;;;;;;;;2100063;28;20045;-45
2021/08/17 02:24:14;;;;;;;24.35;14.57;;;;;;;;;;2098146;28;20275;-46
2021/08/17 02:25:15;;;;;;;22.07;13.53;;;;;;;;;;2098950;28;20063;-44
2021/08/17 02:26:16;;;;;;;19.30;13.60;;;;;;;;;;2105025;28;20050;-45
2021/08/17 02:27:17;;;;;;;21.50;14.03;;;;;;;;;;2106497;28;20047;-44
2021/08/17 02:28:19;;;;;;;25.38;14.70;;;;;;;;;;2102830;28;20127;-45
2021/08/17 02:29:22;;;;;;;19.67;13.52;;;;;;;;;;2099611;28;20443;-46
2021/08/17 02:30:23;;;;;;;18.45;13.43;;;;;;;;;;2098101;28;20076;-45
2021/08/17 02:31:24;;;;;;;22.90;14.57;;;;;;;;;;2100569;28;20123;-45
2021/08/17 02:32:25;;;;;;;23.50;14.75;;;;;;;;;;2098613;28;20110;-45
2021/08/17 02:33:26;;;;;;;19.07;12.90;;;;;;;;;;2098151;28;20131;-47
2021/08/17 02:34:27;;;;;;;21.95;14.00;;;;;;;;;;2100090;28;20101;-46
2021/08/17 02:35:28;;;;;;;21.37;13.20;;;;;;;;;;2106310;28;20096;-47
2021/08/17 02:36:29;;;;;;;21.27;14.20;;;;;;;;;;2106372;28;20483;-45
2021/08/17 02:37:30;;;;;;;20.48;14.32;;;;;;;;;;2102667;28;21568;-45
2021/08/17 02:38:31;;;;;;;23.93;15.40;;;;;;;;;;2106519;28;20105;-47
2021/08/17 02:39:32;;;;;;;21.30;14.45;;;;;;;;;;2106337;28;20134;-47
2021/08/17 02:40:33;;;;;;;24.40;14.93;;;;;;;;;;2101539;28;20072;-46
2021/08/17 02:41:34;;;;;;;19.50;13.63;;;;;;;;;;2106398;28;20052;-45
2021/08/17 02:42:35;;;;;;;20.30;14.17;;;;;;;;;;2105302;28;20106;-47
2021/08/17 02:43:36;;;;;;;22.45;14.93;;;;;;;;;;2101586;28;20040;-46
2021/08/17 02:44:38;;;;;;;19.70;13.80;;;;;;;;;;2097942;28;20048;-44
2021/08/17 02:45:39;;;;;;;18.45;13.43;;;;;;;;;;2097438;28;20313;-45
2021/08/17 02:46:40;;;;;;;26.03;14.77;;;;;;;;;;2103232;28;20040;-44
2021/08/17 02:47:41;;;;;;;18.13;13.52;;;;;;;;;;2106312;28;20367;-47
2021/08/17 02:48:42;;;;;;;21.37;15.03;;;;;;;;;;2103846;28;20157;-46
2021/08/17 02:49:43;;;;;;;22.00;14.50;;;;;;;;;;2104032;28;20142;-48
2021/08/17 02:50:44;;;;;;;24.63;13.90;;;;;;;;;;2106387;28;20044;-46
2021/08/17 02:51:45;;;;;;;23.48;15.02;;;;;;;;;;2102971;28;20052;-47
2021/08/17 02:52:46;;;;;;;20.07;15.07;;;;;;;;;;2103189;28;20047;-45
2021/08/17 02:53:47;;;;;;;19.95;13.63;;;;;;;;;;2106198;28;20054;-47
2021/08/17 02:54:50;;;;;;;22.20;14.37;;;;;;;;;;2103108;28;20044;-45
2021/08/17 02:55:51;;;;;;;21.23;14.63;;;;;;;;;;2099786;28;20044;-45
2021/08/17 02:56:52;;;;;;;23.47;14.93;;;;;;;;;;2097968;28;20045;-46
2021/08/17 02:57:54;;;;;;;19.90;14.27;;;;;;;;;;2100011;28;20126;-47
2021/08/17 02:58:56;;;;;;;18.77;14.05;;;;;;;;;;2104696;28;20040;-44
2021/08/17 02:59:57;;;;;;;19.92;14.65;;;;;;;;;;2106252;28;20083;-47
2021/08/17 03:00:58;;;;;;;26.30;14.77;;;;;;;;;;2104032;28;20056;-46
2021/08/17 03:02:00;;;;;;;21.00;14.70;;;;;;;;;;2098907;28;20482;-44
2021/08/17 03:03:02;;;;;;;23.80;14.38;;;;;;;;;;2097871;28;20051;-47
2021/08/17 03:04:03;;;;;;;19.48;13.65;;;;;;;;;;2099950;28;20539;-45
2021/08/17 03:05:05;;;;;;;17.33;13.82;;;;;;;;;;2105989;28;20131;-45
2021/08/17 03:06:06;;;;;;;22.33;14.73;;;;;;;;;;2106324;28;20048;-45
2021/08/17 03:07:07;;;;;;;20.30;14.70;;;;;;;;;;2102288;28;20134;-47
2021/08/17 03:08:08;;;;;;;25.30;15.17;;;;;;;;;;2097846;28;20478;-46
2021/08/17 03:09:09;;;;;;;22.40;13.68;;;;;;;;;;2097909;28;20048;-44
2021/08/17 03:10:10;;;;;;;19.13;13.77;;;;;;;;;;2099869;28;20048;-45
2021/08/17 03:11:11;;;;;;;19.45;13.38;;;;;;;;;;2106087;28;20627;-44
2021/08/17 03:12:12;;;;;;;20.58;13.88;;;;;;;;;;2106095;28;20047;-44
2021/08/17 03:13:13;;;;;;;19.55;13.65;;;;;;;;;;2101761;28;20451;-45
2021/08/17 03:14:14;;;;;;;20.13;13.90;;;;;;;;;;2106007;28;20129;-46
2021/08/17 03:15:16;;;;;;;21.08;12.98;;;;;;;;;;2105004;28;20048;-49
2021/08/17 03:16:17;;;;;;;18.10;13.55;;;;;;;;;;2101248;28;20596;-46
2021/08/17 03:17:19;;;;;;;20.90;13.60;;;;;;;;;;2097804;28;20045;-45
2021/08/17 03:18:20;;;;;;;25.63;14.43;;;;;;;;;;2097114;28;20047;-45
2021/08/17 03:19:21;;;;;;;21.08;13.25;;;;;;;;;;2103732;28;20143;-45
2021/08/17 03:20:22;;;;;;;19.27;13.57;;;;;;;;;;2106139;28;20060;-46
2021/08/17 03:21:24;;;;;;;20.63;13.73;;;;;;;;;;2103070;28;20047;-45
2021/08/17 03:22:25;;;;;;;18.80;13.48;;;;;;;;;;2100283;28;20076;-45
2021/08/17 03:23:27;;;;;;;18.70;13.27;;;;;;;;;;2097929;28;20393;-44
2021/08/17 03:24:28;;;;;;;15.70;12.75;;;;;;;;;;2099067;28;20063;-45
2021/08/17 03:25:29;;;;;;;15.60;12.03;;;;;;;;;;2104585;28;20044;-45
2021/08/17 03:26:30;;;;;;;22.23;13.30;;;;;;;;;;2106202;28;20127;-45
2021/08/17 03:27:31;;;;;;;19.85;13.32;;;;;;;;;;2102508;28;20051;-46
2021/08/17 03:28:32;;;;;;;21.77;13.40;;;;;;;;;;2100067;28;20132;-45
2021/08/17 03:29:33;;;;;;;20.93;14.10;;;;;;;;;;2097713;28;20047;-48
2021/08/17 03:30:35;;;;;;;20.23;13.65;;;;;;;;;;2099049;28;20054;-45
2021/08/17 03:31:36;;;;;;;17.02;13.02;;;;;;;;;;2104995;28;20064;-46
2021/08/17 03:32:38;;;;;;;23.02;13.48;;;;;;;;;;2106096;28;20055;-45
2021/08/17 03:33:39;;;;;;;23.48;13.55;;;;;;;;;;2103027;28;20052;-45
2021/08/17 03:34:40;;;;;;;21.65;13.25;;;;;;;;;;2105802;28;20101;-44
2021/08/17 03:35:41;;;;;;;25.13;13.70;;;;;;;;;;2106119;28;20143;-48
2021/08/17 03:36:42;;;;;;;18.95;13.63;;;;;;;;;;2101316;28;20044;-46
2021/08/17 03:37:43;;;;;;;18.98;13.13;;;;;;;;;;2105696;28;20497;-44
2021/08/17 03:38:44;;;;;;;45.42;14.45;;;;;;;;;;2106117;28;20123;-46
2021/08/17 03:39:46;;;;;;;23.02;13.63;;;;;;;;;;2101124;28;20135;-45
2021/08/17 03:40:47;;;;;;;23.10;12.88;;;;;;;;;;2105917;28;20513;-46
2021/08/17 03:41:48;;;;;;;24.77;12.80;;;;;;;;;;2106032;28;20048;-47
2021/08/17 03:42:49;;;;;;;18.40;12.23;;;;;;;;;;2100992;28;20282;-46
2021/08/17 03:43:50;;;;;;;21.00;13.07;;;;;;;;;;2097717;28;20674;-44
2021/08/17 03:44:51;;;;;;;20.83;13.70;;;;;;;;;;2097292;28;20121;-45
2021/08/17 03:45:53;;;;;;;18.88;13.23;;;;;;;;;;2101306;28;20129;-45
2021/08/17 03:46:55;;;;;;;17.50;12.60;;;;;;;;;;2097495;28;20056;-45
2021/08/17 03:47:57;;;;;;;23.38;13.07;;;;;;;;;;2097198;28;20040;-47
2021/08/17 03:48:58;;;;;;;22.93;13.50;;;;;;;;;;2100564;28;20059;-45
2021/08/17 03:49:58;;;;;;;22.88;14.00;;;;;;;;;;2097458;28;20151;-46
2021/08/17 03:51:00;;;;;;;17.70;13.00;;;;;;;;;;2097029;28;20218;-46
2021/08/17 03:52:00;;;;;;;21.25;14.00;;;;;;;;;;2103462;28;20154;-46
2021/08/17 03:53:02;;;;;;;16.60;12.00;;;;;;;;;;2097158;28;20097;-48
2021/08/17 03:54:02;;;;;;;17.27;13.20;;;;;;;;;;2098142;28;20053;-45
2021/08/17 03:55:04;;;;;;;20.77;13.10;;;;;;;;;;2100828;28;20489;-44
2021/08/17 03:56:05;;;;;;;20.80;12.95;;;;;;;;;;2097597;28;20048;-46
2021/08/17 03:57:06;;;;;;;19.70;12.60;;;;;;;;;;2097479;28;20570;-45
2021/08/17 03:58:07;;;;;;;21.20;13.57;;;;;;;;;;2100668;28;20048;-45
2021/08/17 03:59:08;;;;;;;19.33;12.52;;;;;;;;;;2097472;28;20369;-47
2021/08/17 04:00:11;;;;;;;20.27;13.30;;;;;;;;;;2098900;28;20047;-45
2021/08/17 04:01:14;;;;;;;18.15;12.48;;;;;;;;;;2099711;28;20123;-45
2021/08/17 04:02:15;;;;;;;21.95;13.50;;;;;;;;;;2097367;28;20044;-44
2021/08/17 04:03:17;;;;;;;19.48;12.00;;;;;;;;;;2099462;28;20109;-45
2021/08/17 04:04:18;;;;;;;21.08;12.77;;;;;;;;;;2105660;28;20070;-44
2021/08/17 04:05:19;;;;;;;20.10;13.33;;;;;;;;;;2105863;28;20050;-46
2021/08/17 04:06:19;;;;;;;18.17;13.40;;;;;;;;;;2101198;28;20092;-50
2021/08/17 04:07:21;;;;;;;18.30;12.57;;;;;;;;;;2105812;28;20105;-45
2021/08/17 04:08:22;;;;;;;19.00;13.05;;;;;;;;;;2105987;28;20071;-45
2021/08/17 04:09:23;;;;;;;18.40;13.00;;;;;;;;;;2101125;28;20080;-44
2021/08/17 04:10:24;;;;;;;71.23;16.90;;;;;;;;;;2105561;28;20040;-44
2021/08/17 04:11:25;;;;;;;17.80;12.13;;;;;;;;;;2106009;28;20052;-44
2021/08/17 04:12:26;;;;;;;21.30;12.87;;;;;;;;;;2101482;28;20044;-45
2021/08/17 04:13:27;;;;;;;20.95;12.70;;;;;;;;;;2097433;28;20600;-45
2021/08/17 04:14:28;;;;;;;20.20;12.20;;;;;;;;;;2097462;28;20048;-47
2021/08/17 04:15:29;;;;;;;19.25;12.32;;;;;;;;;;2100738;28;20055;-45
2021/08/17 04:16:30;;;;;;;17.43;12.60;;;;;;;;;;2097333;28;20041;-46
2021/08/17 04:17:31;;;;;;;16.58;12.27;;;;;;;;;;2096958;28;20044;-45
2021/08/17 04:18:32;;;;;;;19.37;12.47;;;;;;;;;;2101761;28;20412;-46
2021/08/17 04:19:38;;;;;;;19.13;12.88;;;;;;;;;;2105889;28;20363;-44
2021/08/17 04:20:39;;;;;;;20.63;12.27;;;;;;;;;;2103427;28;20133;-48
2021/08/17 04:21:40;;;;;;;16.90;11.95;;;;;;;;;;2104101;28;20139;-45
2021/08/17 04:22:41;;;;;;;21.60;12.43;;;;;;;;;;2107083;28;20463;-45
2021/08/17 04:23:42;;;;;;;34.00;13.10;;;;;;;;;;2105581;28;20044;-45
2021/08/17 04:24:43;;;;;;;24.70;13.60;;;;;;;;;;2104688;28;20047;-45
2021/08/17 04:25:44;;;;;;;18.75;12.77;;;;;;;;;;2107281;28;20052;-46
2021/08/17 04:26:45;;;;;;;21.43;12.73;;;;;;;;;;2103753;28;20386;-47
2021/08/17 04:27:46;;;;;;;19.02;13.00;;;;;;;;;;2105506;28;20494;-47
2021/08/17 04:28:47;;;;;;;18.45;12.65;;;;;;;;;;2107358;28;20059;-44
2021/08/17 04:29:49;;;;;;;17.98;11.73;;;;;;;;;;2104920;28;20044;-46
2021/08/17 04:30:50;;;;;;;57.42;15.40;;;;;;;;;;2105785;28;20392;-45
2021/08/17 04:31:52;;;;;;;20.40;12.57;;;;;;;;;;2107174;28;20059;-45
2021/08/17 04:32:53;;;;;;;22.33;12.48;;;;;;;;;;2103851;28;20455;-45
2021/08/17 04:33:54;;;;;;;16.70;11.98;;;;;;;;;;2107062;28;20051;-45
2021/08/17 04:34:55;;;;;;;18.87;11.53;;;;;;;;;;2107075;28;20044;-45
2021/08/17 04:35:56;;;;;;;18.20;11.70;;;;;;;;;;2104386;28;20048;-45
2021/08/17 04:36:57;;;;;;;24.07;12.40;;;;;;;;;;2106639;28;20503;-44
2021/08/17 04:37:57;;;;;;;22.83;12.38;;;;;;;;;;2107199;28;20130;-45
2021/08/17 04:38:59;;;;;;;20.43;12.43;;;;;;;;;;2103821;28;20044;-45
2021/08/17 04:40:01;;;;;;;15.35;11.45;;;;;;;;;;2107101;28;20127;-45
2021/08/17 04:41:02;;;;;;;18.55;12.18;;;;;;;;;;2107032;28;20588;-45
2021/08/17 04:42:03;;;;;;;17.38;11.35;;;;;;;;;;2102351;28;20132;-45
2021/08/17 04:43:07;;;;;;;17.23;11.73;;;;;;;;;;2107007;28;20093;-45
2021/08/17 04:44:08;;;;;;;15.32;11.18;;;;;;;;;;2107297;28;20548;-46
2021/08/17 04:45:09;;;;;;;20.85;11.55;;;;;;;;;;2103335;28;20054;-45
2021/08/17 04:46:10;;;;;;;14.68;11.50;;;;;;;;;;2098784;28;20553;-42
2021/08/17 04:47:12;;;;;;;18.97;11.67;;;;;;;;;;2098216;28;20059;-43
2021/08/17 04:48:13;;;;;;;17.35;11.45;;;;;;;;;;2103151;28;20287;-43
2021/08/17 04:49:14;;;;;;;16.10;11.73;;;;;;;;;;2107044;28;20507;-42
2021/08/17 04:50:16;;;;;;;20.63;11.02;;;;;;;;;;2106639;28;20067;-43
2021/08/17 04:51:18;;;;;;;16.25;11.55;;;;;;;;;;2104169;28;20059;-42
2021/08/17 04:52:19;;;;;;;16.90;11.95;;;;;;;;;;2103985;28;20145;-42
2021/08/17 04:53:20;;;;;;;20.42;12.23;;;;;;;;;;2098193;28;20124;-42
2021/08/17 04:54:21;;;;;;;18.25;11.13;;;;;;;;;;2102304;28;20486;-43
2021/08/17 04:55:22;;;;;;;17.30;12.30;;;;;;;;;;2098608;28;20051;-42
2021/08/17 04:56:23;;;;;;;20.02;11.80;;;;;;;;;;2099041;28;20242;-42
2021/08/17 04:57:24;;;;;;;22.20;13.37;;;;;;;;;;2105333;28;20051;-42
2021/08/17 04:58:25;;;;;;;19.45;11.57;;;;;;;;;;2106883;28;20758;-42
2021/08/17 04:59:26;;;;;;;16.13;12.30;;;;;;;;;;2103736;28;20051;-42
2021/08/17 05:00:28;;;;;;;24.13;12.27;;;;;;;;;;2102305;28;20076;-42
2021/08/17 05:01:30;;;;;;;22.05;12.70;;;;;;;;;;2098687;28;20054;-42
2021/08/17 05:02:32;;;;;;;19.17;11.98;;;;;;;;;;2101026;28;20083;-42
2021/08/17 05:03:34;;;;;;;16.73;11.82;;;;;;;;;;2105759;28;20043;-43
2021/08/17 05:04:35;;;;;;;23.08;12.70;;;;;;;;;;2107030;28;20044;-42
2021/08/17 05:05:36;;;;;;;16.93;11.33;;;;;;;;;;2102509;28;20055;-43
2021/08/17 05:06:37;;;;;;;20.30;12.63;;;;;;;;;;2106544;28;20320;-43
2021/08/17 05:07:38;;;;;;;16.33;11.77;;;;;;;;;;2106853;28;20151;-43
2021/08/17 05:08:39;;;;;;;14.52;11.43;;;;;;;;;;2103268;28;20309;-42
2021/08/17 05:09:40;;;;;;;17.15;12.23;;;;;;;;;;2099111;28;20184;-42
2021/08/17 05:10:41;;;;;;;16.98;12.32;;;;;;;;;;2103702;28;20462;-42
2021/08/17 05:11:42;;;;;;;18.07;12.10;;;;;;;;;;2102876;28;20055;-42
2021/08/17 05:12:43;;;;;;;21.58;12.68;;;;;;;;;;2101136;28;20642;-43
2021/08/17 05:13:44;;;;;;;22.70;12.70;;;;;;;;;;2103693;28;20497;-44
2021/08/17 05:14:45;;;;;;;19.13;11.75;;;;;;;;;;2102097;28;20055;-42
2021/08/17 05:15:46;;;;;;;21.13;11.53;;;;;;;;;;2103514;28;20405;-42
2021/08/17 05:16:49;;;;;;;18.45;12.25;;;;;;;;;;2101911;28;20279;-42
2021/08/17 05:17:51;;;;;;;18.63;12.32;;;;;;;;;;2103723;28;20489;-43
2021/08/17 05:18:53;;;;;;;18.02;11.68;;;;;;;;;;2102305;28;20051;-42
2021/08/17 05:19:54;;;;;;;20.80;12.23;;;;;;;;;;2099785;28;20067;-42
2021/08/17 05:20:55;;;;;;;18.92;12.60;;;;;;;;;;2102885;28;20131;-42
2021/08/17 05:21:56;;;;;;;18.00;12.43;;;;;;;;;;2103470;28;20499;-42
2021/08/17 05:22:58;;;;;;;22.30;12.80;;;;;;;;;;2101464;28;20052;-42
2021/08/17 05:23:58;;;;;;;19.63;12.40;;;;;;;;;;2103861;28;20113;-43
2021/08/17 05:25:00;;;;;;;20.00;11.93;;;;;;;;;;2103288;28;20101;-42
2021/08/17 05:26:01;;;;;;;19.33;11.75;;;;;;;;;;2100702;28;20126;-42
2021/08/17 05:27:02;;;;;;;18.63;11.80;;;;;;;;;;2103620;28;20048;-43
2021/08/17 05:28:03;;;;;;;19.77;11.88;;;;;;;;;;2101425;28;20356;-42
2021/08/17 05:29:04;;;;;;;18.92;11.35;;;;;;;;;;2101922;28;20170;-42
2021/08/17 05:30:06;;;;;;;22.65;11.43;;;;;;;;;;2105857;28;20048;-43
2021/08/17 05:31:07;;;;;;;19.73;11.23;;;;;;;;;;2100807;28;20521;-42
2021/08/17 05:32:08;;;;;;;18.90;11.98;;;;;;;;;;2103796;28;20052;-42
2021/08/17 05:33:09;;;;;;;30.47;12.43;;;;;;;;;;2105109;28;20063;-42
2021/08/17 05:34:10;;;;;;;;;;;;;;;;;;2103895;28;20131;-43
2021/08/17 05:35:11;;;;;;;23.63;12.00;;;;;;;;;;2101040;28;19947;-43
2021/08/17 05:36:12;;;;;;;19.92;12.00;;;;;;;;;;2103270;28;20048;-43
2021/08/17 05:37:14;;;;;;;20.37;12.00;;;;;;;;;;2102815;28;20551;-43
2021/08/17 05:38:15;;;;;;;18.40;11.93;;;;;;;;;;2099349;28;20276;-43
2021/08/17 05:39:16;;;;;;;23.03;11.43;;;;;;;;;;2103004;28;20041;-43
2021/08/17 05:40:17;;;;;;;20.38;11.55;;;;;;;;;;2102371;28;20136;-43
2021/08/17 05:41:18;;;;;;;35.80;12.40;;;;;;;;;;2100863;28;20048;-43
2021/08/17 05:42:19;;;;;;;17.02;11.50;;;;;;;;;;2102991;28;20643;-43
2021/08/17 05:43:20;;;;;;;17.58;10.57;;;;;;;;;;2101682;28;20127;-43
2021/08/17 05:44:37;;;;;;;20.63;11.63;;;;;;;;;;2103109;28;20524;-44
2021/08/17 05:45:39;;;;;;;17.52;11.10;;;;;;;;;;2102177;28;20401;-45
2021/08/17 05:46:40;;;;;;;20.85;11.00;;;;;;;;;;2099263;28;20422;-43
2021/08/17 05:47:43;;;;;;;22.15;11.48;;;;;;;;;;2103945;28;20066;-43
2021/08/17 05:48:44;;;;;;;20.38;12.00;;;;;;;;;;2101112;28;20615;-44
2021/08/17 05:49:45;;;;;;;15.57;10.55;;;;;;;;;;2100730;28;20043;-42
2021/08/17 05:50:46;;;;;;;21.70;11.52;;;;;;;;;;2105645;28;20040;-43
2021/08/17 05:51:47;;;;;;;18.33;10.80;;;;;;;;;;2101866;28;20142;-43
2021/08/17 05:52:48;;;;;;;16.43;10.47;;;;;;;;;;2099710;28;20047;-43
2021/08/17 05:53:54;;;;;;;20.10;11.18;;;;;;;;;;2103623;28;20355;-44
2021/08/17 05:54:55;;;;;;;24.33;11.93;;;;;;;;;;2102820;28;20052;-43
2021/08/17 05:55:56;;;;;;;19.05;11.00;;;;;;;;;;2099394;28;20047;-43
2021/08/17 05:56:58;;;;;;;16.60;10.57;;;;;;;;;;2101325;28;20075;-45
2021/08/17 05:58:00;;;;;;;14.93;10.45;;;;;;;;;;2099277;28;20048;-43
2021/08/17 05:59:01;;;;;;;19.95;10.98;;;;;;;;;;2102208;28;20067;-43